createdAt,value
2019-04-04T00:01:47.789Z,4.00
2019-04-04T00:04:15.794Z,3.70
2019-04-04T00:06:44.768Z,3.62
2019-04-04T00:09:15.713Z,3.85
2019-04-04T00:11:45.835Z,3.85
2019-04-04T00:14:14.840Z,4.00
2019-04-04T00:16:43.735Z,4.00
2019-04-04T00:19:12.713Z,4.17
2019-04-04T00:21:45.353Z,4.20
2019-04-04T00:24:15.331Z,3.50
2019-04-04T00:26:44.208Z,3.80
2019-04-04T00:29:13.094Z,3.90
2019-04-04T00:31:43.295Z,4.00
2019-04-04T00:34:13.782Z,4.00
2019-04-04T00:36:46.229Z,3.90
2019-04-04T00:39:17.307Z,4.03
2019-04-04T00:41:46.472Z,4.42
2019-04-04T00:44:16.448Z,3.55
2019-04-04T00:46:47.410Z,4.45
2019-04-04T00:49:17.333Z,4.45
2019-04-04T00:51:51.618Z,4.40
2019-04-04T00:54:21.705Z,3.85
2019-04-04T00:56:55.385Z,4.10
2019-04-04T00:59:25.789Z,4.35
2019-04-04T01:01:58.797Z,4.20
2019-04-04T01:04:32.000Z,4.92
2019-04-04T01:07:03.017Z,4.53
2019-04-04T01:09:33.220Z,4.60
2019-04-04T01:12:08.979Z,4.40
2019-04-04T01:14:38.021Z,5.00
2019-04-04T01:17:08.069Z,4.97
2019-04-04T01:19:38.000Z,6.92
2019-04-04T01:22:09.843Z,6.15
2019-04-04T01:24:38.821Z,4.90
2019-04-04T01:27:08.753Z,5.03
2019-04-04T01:29:39.035Z,11.25
2019-04-04T01:32:10.541Z,12.45
2019-04-04T01:34:39.510Z,9.33
2019-04-04T01:37:08.444Z,6.75
2019-04-04T01:39:38.408Z,6.28
2019-04-04T01:42:13.241Z,6.37
2019-04-04T01:44:51.944Z,6.70
2019-04-04T01:47:20.894Z,7.08
2019-04-04T01:49:49.912Z,6.20
2019-04-04T01:52:20.364Z,7.00
2019-04-04T01:54:50.305Z,6.62
2019-04-04T01:57:19.202Z,8.00
2019-04-04T01:59:50.045Z,7.37
2019-04-04T02:02:19.005Z,7.40
2019-04-04T02:04:48.832Z,8.73
2019-04-04T02:07:18.790Z,8.13
2019-04-04T02:09:47.649Z,7.87
2019-04-04T02:12:17.555Z,8.23
2019-04-04T02:14:46.527Z,8.00
2019-04-04T02:17:16.525Z,7.53
2019-04-04T02:19:47.425Z,6.05
2019-04-04T02:22:18.526Z,5.70
2019-04-04T02:24:47.461Z,6.95
2019-04-04T02:27:16.483Z,6.83
2019-04-04T02:29:45.339Z,6.20
2019-04-04T02:32:16.654Z,5.25
2019-04-04T02:34:45.661Z,5.95
2019-04-04T02:37:14.581Z,5.92
2019-04-04T02:39:45.756Z,5.50
2019-04-04T02:42:20.959Z,6.45
2019-04-04T02:44:47.533Z,5.08
2019-04-04T02:47:18.327Z,6.08
2019-04-04T02:49:48.238Z,6.58
2019-04-04T02:52:18.130Z,6.12
2019-04-04T02:54:47.110Z,6.87
2019-04-04T02:57:16.155Z,8.40
2019-04-04T02:59:52.976Z,7.20
2019-04-04T03:02:19.012Z,6.90
2019-04-04T03:04:48.011Z,8.30
2019-04-04T03:07:29.758Z,7.35
2019-04-04T03:09:58.781Z,8.68
2019-04-04T03:12:28.747Z,7.55
2019-04-04T03:14:59.826Z,7.67
2019-04-04T03:17:32.611Z,8.00
2019-04-04T03:20:00.341Z,6.87
2019-04-04T03:22:29.358Z,6.90
2019-04-04T03:24:58.433Z,7.60
2019-04-04T03:27:28.468Z,6.60
2019-04-04T03:29:58.866Z,7.40
2019-04-04T03:32:27.778Z,8.05
2019-04-04T03:35:02.296Z,8.43
2019-04-04T03:37:32.138Z,8.10
2019-04-04T03:40:01.798Z,7.28
2019-04-04T03:42:31.773Z,7.70
2019-04-04T03:45:00.588Z,8.55
2019-04-04T03:47:29.470Z,8.98
2019-04-04T03:49:58.296Z,8.30
2019-04-04T03:52:27.245Z,8.75
2019-04-04T03:54:56.655Z,8.73
2019-04-04T03:57:25.511Z,6.78
2019-04-04T03:59:54.324Z,6.80
2019-04-04T04:02:23.134Z,5.97
2019-04-04T04:04:52.004Z,6.62
2019-04-04T04:07:20.865Z,6.65
2019-04-04T04:09:49.689Z,6.80
2019-04-04T04:12:18.556Z,7.80
2019-04-04T04:14:47.385Z,6.95
2019-04-04T04:17:16.186Z,7.65
2019-04-04T04:19:45.078Z,7.55
2019-04-04T04:22:18.257Z,8.10
2019-04-04T04:24:44.395Z,8.35
2019-04-04T04:27:15.454Z,8.68
2019-04-04T04:29:43.724Z,8.93
2019-04-04T04:32:12.917Z,8.75
2019-04-04T04:34:41.934Z,8.43
2019-04-04T04:37:10.741Z,9.48
2019-04-04T04:39:41.391Z,8.90
2019-04-04T04:42:10.095Z,10.32
2019-04-04T04:44:39.182Z,10.05
2019-04-04T04:47:08.115Z,11.22
2019-04-04T04:49:36.937Z,10.98
2019-04-04T04:52:05.817Z,11.40
2019-04-04T04:54:34.703Z,11.33
2019-04-04T04:57:04.793Z,11.15
2019-04-04T04:59:33.870Z,12.60
2019-04-04T05:02:03.907Z,14.20
2019-04-04T05:04:33.048Z,14.05
2019-04-04T05:07:02.236Z,14.78
2019-04-04T05:09:31.225Z,15.55
2019-04-04T05:12:00.154Z,15.20
2019-04-04T05:14:29.820Z,12.23
2019-04-04T05:16:59.152Z,11.10
2019-04-04T05:19:28.013Z,10.88
2019-04-04T05:21:56.868Z,12.82
2019-04-04T05:24:25.678Z,12.03
2019-04-04T05:26:54.582Z,13.32
2019-04-04T05:29:23.573Z,14.93
2019-04-04T05:31:53.410Z,15.72
2019-04-04T05:34:22.265Z,17.30
2019-04-04T05:36:51.345Z,20.27
2019-04-04T05:39:20.228Z,19.80
2019-04-04T05:41:49.200Z,18.62
2019-04-04T05:44:18.087Z,16.73
2019-04-04T05:46:51.152Z,15.20
2019-04-04T05:49:18.560Z,14.38
2019-04-04T05:51:49.449Z,16.30
2019-04-04T05:54:18.327Z,17.25
2019-04-04T05:56:49.067Z,15.25
2019-04-04T05:59:17.915Z,22.67
2019-04-04T06:01:46.757Z,23.95
2019-04-04T06:04:19.117Z,18.50
2019-04-04T06:06:46.416Z,19.95
2019-04-04T06:09:15.281Z,15.38
2019-04-04T06:11:44.144Z,14.80
2019-04-04T06:14:14.058Z,16.12
2019-04-04T06:16:42.949Z,16.30
2019-04-04T06:19:14.818Z,15.80
2019-04-04T06:21:43.505Z,14.18
2019-04-04T06:24:12.428Z,13.05
2019-04-04T06:26:42.312Z,13.88
2019-04-04T06:29:15.154Z,10.38
2019-04-04T06:31:43.858Z,11.97
2019-04-04T06:34:13.691Z,14.43
2019-04-04T06:36:42.655Z,11.10
2019-04-04T06:39:11.465Z,11.18
2019-04-04T06:41:40.442Z,10.05
2019-04-04T06:44:10.981Z,12.18
2019-04-04T06:46:40.910Z,13.25
2019-04-04T06:49:09.809Z,13.13
2019-04-04T06:51:38.757Z,12.40
2019-04-04T06:54:07.688Z,13.88
2019-04-04T06:56:36.574Z,13.60
2019-04-04T06:59:05.502Z,13.60
2019-04-04T07:01:34.388Z,14.38
2019-04-04T07:04:05.235Z,14.70
2019-04-04T07:06:34.529Z,13.75
2019-04-04T07:09:09.732Z,13.15
2019-04-04T07:11:39.174Z,12.30
2019-04-04T07:14:08.420Z,12.75
2019-04-04T07:16:38.276Z,12.23
2019-04-04T07:19:08.091Z,12.75
2019-04-04T07:21:37.024Z,11.53
2019-04-04T07:24:06.016Z,11.88
2019-04-04T07:26:34.910Z,11.70
2019-04-04T07:29:03.888Z,12.78
2019-04-04T07:31:33.538Z,11.65
2019-04-04T07:34:03.300Z,11.18
2019-04-04T07:36:32.205Z,12.53
2019-04-04T07:39:01.972Z,11.03
2019-04-04T07:41:30.867Z,10.85
2019-04-04T07:43:59.792Z,11.57
2019-04-04T07:46:30.709Z,12.47
2019-04-04T07:48:59.612Z,9.55
2019-04-04T07:51:30.227Z,10.32
2019-04-04T07:54:00.222Z,10.82
2019-04-04T07:56:30.047Z,9.48
2019-04-04T07:58:58.866Z,9.20
2019-04-04T08:01:27.767Z,10.88
2019-04-04T08:03:56.780Z,11.03
2019-04-04T08:06:25.765Z,11.57
2019-04-04T08:08:54.586Z,11.40
2019-04-04T08:11:23.446Z,12.10
2019-04-04T08:13:52.413Z,10.60
2019-04-04T08:16:22.254Z,11.53
2019-04-04T08:18:51.073Z,10.60
2019-04-04T08:21:19.910Z,11.22
2019-04-04T08:23:49.807Z,11.33
2019-04-04T08:26:18.676Z,10.18
2019-04-04T08:28:47.484Z,13.00
2019-04-04T08:31:16.469Z,12.03
2019-04-04T08:33:46.289Z,10.85
2019-04-04T08:36:15.238Z,12.47
2019-04-04T08:38:44.128Z,12.43
2019-04-04T08:41:13.112Z,11.33
2019-04-04T08:43:41.944Z,12.18
2019-04-04T08:46:10.908Z,11.88
2019-04-04T08:48:39.855Z,13.05
2019-04-04T08:51:08.675Z,10.85
2019-04-04T08:53:40.163Z,10.93
2019-04-04T08:56:08.200Z,12.95
2019-04-04T08:58:37.022Z,12.00
2019-04-04T09:01:06.005Z,12.07
2019-04-04T09:03:34.834Z,12.93
2019-04-04T09:06:03.813Z,13.10
2019-04-04T09:08:32.634Z,12.82
2019-04-04T09:11:01.613Z,14.20
2019-04-04T09:13:30.436Z,13.03
2019-04-04T09:15:59.361Z,12.18
2019-04-04T09:18:28.270Z,12.30
2019-04-04T09:20:57.156Z,13.93
2019-04-04T09:23:26.160Z,11.15
2019-04-04T09:26:04.989Z,11.97
2019-04-04T09:28:25.577Z,12.13
2019-04-04T09:30:55.573Z,13.30
2019-04-04T09:33:24.538Z,11.40
2019-04-04T09:35:53.462Z,11.55
2019-04-04T09:38:22.297Z,12.47
2019-04-04T09:40:51.218Z,12.58
2019-04-04T09:43:22.168Z,12.00
2019-04-04T09:45:50.791Z,11.50
2019-04-04T09:48:23.838Z,10.58
2019-04-04T09:50:56.454Z,11.30
2019-04-04T09:53:26.494Z,10.65
2019-04-04T09:56:02.873Z,9.33
2019-04-04T09:58:34.841Z,9.75
2019-04-04T10:01:06.735Z,10.93
2019-04-04T10:03:35.861Z,11.18
2019-04-04T10:06:04.868Z,11.45
2019-04-04T10:08:33.892Z,10.45
2019-04-04T10:11:02.957Z,10.38
2019-04-04T10:13:31.850Z,8.80
2019-04-04T10:16:01.537Z,10.30
2019-04-04T10:18:31.358Z,8.28
2019-04-04T10:21:11.610Z,9.53
2019-04-04T10:23:32.251Z,8.15
2019-04-04T10:26:01.627Z,9.13
2019-04-04T10:28:30.458Z,7.85
2019-04-04T10:30:59.308Z,9.38
2019-04-04T10:33:28.157Z,9.20
2019-04-04T10:35:57.078Z,7.20
2019-04-04T10:38:25.977Z,5.80
2019-04-04T10:40:55.905Z,6.53
2019-04-04T10:43:24.742Z,6.35
2019-04-04T10:45:53.665Z,5.50
2019-04-04T10:48:22.549Z,5.42
2019-04-04T10:50:51.529Z,5.28
2019-04-04T10:53:20.428Z,6.15
2019-04-04T10:55:49.321Z,5.70
2019-04-04T10:58:18.151Z,5.85
2019-04-04T11:00:46.957Z,5.40
2019-04-04T11:03:15.800Z,6.28
2019-04-04T11:05:45.773Z,7.12
2019-04-04T11:08:14.697Z,6.10
2019-04-04T11:10:43.635Z,6.20
2019-04-04T11:13:12.543Z,6.97
2019-04-04T11:15:41.455Z,5.40
2019-04-04T11:18:10.357Z,6.17
2019-04-04T11:20:39.273Z,6.20
2019-04-04T11:23:08.184Z,6.03
2019-04-04T11:25:37.169Z,5.55
2019-04-04T11:28:06.104Z,5.62
2019-04-04T11:30:34.979Z,5.50
2019-04-04T11:33:04.005Z,5.85
2019-04-04T11:35:33.158Z,5.42
2019-04-04T11:38:05.032Z,4.80
2019-04-04T11:40:34.924Z,4.75
2019-04-04T11:43:03.954Z,4.80
2019-04-04T11:45:32.961Z,4.75
2019-04-04T11:48:01.900Z,4.05
2019-04-04T11:50:30.908Z,4.85
2019-04-04T11:53:01.972Z,4.58
2019-04-04T11:55:32.177Z,4.42
2019-04-04T11:58:02.386Z,4.45
2019-04-04T12:00:34.221Z,4.30
2019-04-04T12:03:04.322Z,5.25
2019-04-04T12:05:33.248Z,4.33
2019-04-04T12:08:02.262Z,3.80
2019-04-04T12:10:31.493Z,5.45
2019-04-04T12:13:00.426Z,4.87
2019-04-04T12:15:29.358Z,4.78
2019-04-04T12:17:58.284Z,4.17
2019-04-04T12:20:27.165Z,4.83
2019-04-04T12:22:56.120Z,4.65
2019-04-04T12:25:27.088Z,5.00
2019-04-04T12:27:59.468Z,4.87
2019-04-04T12:30:28.781Z,3.60
2019-04-04T12:32:57.766Z,3.17
2019-04-04T12:35:26.675Z,3.60
2019-04-04T12:37:56.564Z,3.50
2019-04-04T12:40:25.485Z,3.20
2019-04-04T12:42:54.308Z,2.72
2019-04-04T12:45:26.492Z,2.20
2019-04-04T12:47:55.413Z,2.70
2019-04-04T12:50:24.300Z,2.10
2019-04-04T12:52:53.231Z,2.60
2019-04-04T12:55:22.214Z,2.02
2019-04-04T12:57:51.136Z,2.35
2019-04-04T13:00:20.171Z,2.42
2019-04-04T13:02:50.179Z,2.62
2019-04-04T13:05:20.258Z,3.17
2019-04-04T13:07:50.267Z,2.90
2019-04-04T13:10:32.286Z,2.52
2019-04-04T13:12:51.573Z,2.75
2019-04-04T13:15:21.548Z,2.33
2019-04-04T13:17:51.422Z,2.35
2019-04-04T13:20:20.463Z,2.92
2019-04-04T13:22:49.296Z,2.72
2019-04-04T13:25:18.332Z,2.80
2019-04-04T13:27:48.376Z,2.55
2019-04-04T13:30:17.441Z,2.30
2019-04-04T13:32:46.336Z,2.62
2019-04-04T13:35:16.242Z,2.60
2019-04-04T13:37:45.065Z,2.60
2019-04-04T13:40:14.126Z,2.20
2019-04-04T13:42:43.038Z,2.77
2019-04-04T13:45:12.080Z,2.83
2019-04-04T13:47:41.065Z,2.40
2019-04-04T13:50:12.399Z,2.10
2019-04-04T13:52:41.046Z,1.77
2019-04-04T13:55:10.213Z,2.10
2019-04-04T13:57:39.608Z,2.20
2019-04-04T14:00:09.553Z,2.27
2019-04-04T14:02:38.585Z,2.42
2019-04-04T14:05:10.016Z,2.37
2019-04-04T14:07:39.662Z,2.50
2019-04-04T14:10:10.845Z,2.60
2019-04-04T14:12:39.774Z,2.55
2019-04-04T14:15:09.898Z,2.40
2019-04-04T14:17:38.934Z,2.33
2019-04-04T14:20:08.413Z,2.20
2019-04-04T14:22:38.519Z,2.10
2019-04-04T14:25:08.357Z,2.20
2019-04-04T14:27:39.190Z,2.05
2019-04-04T14:30:09.028Z,1.85
2019-04-04T14:32:37.964Z,2.20
2019-04-04T14:35:07.792Z,2.00
2019-04-04T14:37:36.777Z,2.10
2019-04-04T14:40:06.067Z,2.58
2019-04-04T14:42:35.153Z,1.80
2019-04-04T14:45:06.604Z,2.00
2019-04-04T14:47:35.910Z,1.72
2019-04-04T14:50:06.875Z,2.10
2019-04-04T14:52:39.154Z,1.60
2019-04-04T14:55:07.682Z,1.80
2019-04-04T14:57:37.542Z,2.00
2019-04-04T15:00:09.152Z,2.10
2019-04-04T15:02:39.084Z,1.60
2019-04-04T15:05:10.111Z,1.82
2019-04-04T15:07:40.053Z,1.90
2019-04-04T15:10:09.329Z,2.55
2019-04-04T15:12:41.356Z,1.80
2019-04-04T15:15:11.936Z,1.60
2019-04-04T15:17:42.407Z,1.80
2019-04-04T15:20:11.616Z,1.60
2019-04-04T15:22:40.870Z,1.82
2019-04-04T15:25:24.175Z,1.65
2019-04-04T15:27:52.964Z,1.55
2019-04-04T15:30:23.114Z,1.92
2019-04-04T15:32:54.047Z,1.70
2019-04-04T15:35:23.037Z,1.57
2019-04-04T15:37:53.016Z,1.20
2019-04-04T15:40:22.020Z,1.42
2019-04-04T15:42:51.865Z,1.50
2019-04-04T15:45:20.761Z,1.67
2019-04-04T15:47:49.652Z,2.30
2019-04-04T15:50:18.709Z,5.47
2019-04-04T15:52:47.926Z,1.35
2019-04-04T15:55:16.837Z,1.20
2019-04-04T15:57:45.736Z,1.30
2019-04-04T16:00:14.833Z,1.40
2019-04-04T16:02:43.789Z,1.40
2019-04-04T16:05:13.986Z,1.00
2019-04-04T16:07:42.900Z,1.10
2019-04-04T16:10:13.061Z,1.10
2019-04-04T16:12:43.142Z,1.37
2019-04-04T16:15:14.181Z,1.20
2019-04-04T16:17:44.175Z,1.50
2019-04-04T16:20:14.601Z,1.52
2019-04-04T16:22:44.561Z,1.20
2019-04-04T16:25:13.721Z,1.20
2019-04-04T16:27:42.669Z,1.10
2019-04-04T16:30:11.773Z,1.10
2019-04-04T16:32:41.737Z,1.40
2019-04-04T16:35:10.800Z,1.30
2019-04-04T16:37:40.748Z,1.10
2019-04-04T16:40:10.207Z,1.10
2019-04-04T16:42:40.382Z,1.15
2019-04-04T16:45:10.918Z,1.20
2019-04-04T16:47:40.104Z,1.50
2019-04-04T16:50:09.391Z,1.07
2019-04-04T16:52:38.304Z,0.95
2019-04-04T16:55:07.601Z,1.02
2019-04-04T16:57:36.619Z,0.90
2019-04-04T17:00:06.713Z,0.93
2019-04-04T17:02:36.635Z,1.17
2019-04-04T17:05:06.982Z,0.90
2019-04-04T17:07:37.058Z,1.07
2019-04-04T17:10:07.217Z,1.10
2019-04-04T17:12:36.298Z,1.07
2019-04-04T17:15:10.056Z,1.10
2019-04-04T17:17:40.024Z,1.10
2019-04-04T17:20:09.564Z,1.00
2019-04-04T17:22:42.115Z,0.90
2019-04-04T17:25:11.393Z,1.00
2019-04-04T17:27:40.380Z,0.90
2019-04-04T17:30:10.423Z,0.90
2019-04-04T17:32:40.946Z,1.00
2019-04-04T17:35:11.172Z,1.00
2019-04-04T17:37:40.204Z,1.25
2019-04-04T17:40:11.141Z,1.02
2019-04-04T17:42:40.068Z,1.62
2019-04-04T17:45:11.839Z,1.40
2019-04-04T17:47:40.964Z,1.55
2019-04-04T17:50:10.786Z,1.05
2019-04-04T17:52:40.121Z,1.00
2019-04-04T17:55:09.512Z,1.32
2019-04-04T17:57:39.814Z,1.10
2019-04-04T18:00:10.041Z,1.10
2019-04-04T18:02:40.109Z,0.85
2019-04-04T18:05:09.225Z,1.10
2019-04-04T18:07:40.887Z,1.00
2019-04-04T18:10:10.464Z,1.00
2019-04-04T18:12:41.009Z,1.30
2019-04-04T18:15:10.405Z,1.22
2019-04-04T18:17:39.399Z,1.10
2019-04-04T18:20:10.373Z,1.10
2019-04-04T18:22:40.839Z,1.30
2019-04-04T18:25:09.858Z,1.40
2019-04-04T18:27:38.727Z,1.50
2019-04-04T18:30:08.865Z,1.20
2019-04-04T18:32:37.873Z,1.20
2019-04-04T18:35:08.442Z,2.12
2019-04-04T18:37:37.393Z,2.80
2019-04-04T18:40:07.931Z,2.45
2019-04-04T18:42:36.900Z,1.50
2019-04-04T18:45:06.290Z,1.52
2019-04-04T18:47:35.510Z,1.72
2019-04-04T18:50:04.660Z,1.52
2019-04-04T18:52:33.930Z,1.50
2019-04-04T18:55:04.265Z,1.60
2019-04-04T18:57:35.356Z,1.20
2019-04-04T19:00:06.721Z,1.95
2019-04-04T19:02:35.641Z,1.60
2019-04-04T19:05:06.443Z,1.75
2019-04-04T19:07:39.631Z,1.77
2019-04-04T19:10:08.440Z,2.08
2019-04-04T19:12:37.613Z,1.62
2019-04-04T19:15:07.839Z,2.40
2019-04-04T19:17:37.095Z,2.35
2019-04-04T19:20:09.694Z,2.17
2019-04-04T19:22:37.559Z,2.22
2019-04-04T19:25:08.030Z,2.30
2019-04-04T19:27:37.115Z,2.20
2019-04-04T19:30:08.234Z,2.77
2019-04-04T19:32:37.212Z,2.70
2019-04-04T19:35:08.585Z,2.60
2019-04-04T19:37:39.424Z,2.65
2019-04-04T19:40:08.920Z,2.80
2019-04-04T19:42:37.925Z,3.25
2019-04-04T19:45:08.277Z,3.22
2019-04-04T19:47:37.294Z,3.12
2019-04-04T19:50:06.805Z,2.67
2019-04-04T19:52:35.797Z,3.12
2019-04-04T19:55:05.094Z,3.10
2019-04-04T19:57:34.002Z,3.17
2019-04-04T20:00:04.690Z,2.80
2019-04-04T20:02:33.657Z,2.67
2019-04-04T20:05:02.549Z,3.30
2019-04-04T20:07:31.401Z,3.60
2019-04-04T20:10:01.218Z,3.33
2019-04-04T20:12:31.033Z,3.25
2019-04-04T20:15:00.216Z,3.37
2019-04-04T20:17:29.094Z,3.58
2019-04-04T20:19:57.914Z,3.22
2019-04-04T20:22:26.826Z,3.90
2019-04-04T20:24:57.484Z,3.47
2019-04-04T20:27:26.306Z,4.05
2019-04-04T20:29:56.197Z,4.65
2019-04-04T20:32:25.271Z,4.70
2019-04-04T20:34:54.194Z,4.30
2019-04-04T20:37:23.107Z,4.85
2019-04-04T20:39:51.996Z,4.83
2019-04-04T20:42:20.832Z,4.72
2019-04-04T20:44:49.662Z,4.53
2019-04-04T20:47:18.657Z,4.80
2019-04-04T20:49:47.726Z,5.35
2019-04-04T20:52:16.547Z,5.30
2019-04-04T20:54:45.455Z,5.42
2019-04-04T20:57:14.305Z,5.03
2019-04-04T20:59:43.372Z,5.53
2019-04-04T21:02:12.329Z,5.67
2019-04-04T21:04:41.161Z,6.15
2019-04-04T21:07:10.040Z,5.78
2019-04-04T21:09:38.980Z,5.42
2019-04-04T21:12:07.881Z,5.33
2019-04-04T21:14:36.710Z,6.17
2019-04-04T21:17:05.683Z,6.37
2019-04-04T21:19:35.513Z,5.70
2019-04-04T21:22:04.490Z,7.50
2019-04-04T21:24:33.327Z,7.30
2019-04-04T21:27:02.153Z,6.72
2019-04-04T21:29:31.066Z,6.87
2019-04-04T21:32:00.024Z,6.78
2019-04-04T21:34:30.092Z,6.25
2019-04-04T21:36:59.128Z,6.95
2019-04-04T21:39:29.883Z,6.42
2019-04-04T21:42:00.070Z,7.78
2019-04-04T21:44:29.138Z,7.45
2019-04-04T21:47:05.046Z,7.17
2019-04-04T21:49:34.893Z,8.10
2019-04-04T21:52:03.877Z,7.92
2019-04-04T21:54:33.827Z,7.17
2019-04-04T21:57:03.776Z,8.00
2019-04-04T21:59:34.761Z,7.65
2019-04-04T22:02:04.205Z,7.15
2019-04-04T22:04:34.212Z,8.13
2019-04-04T22:07:03.214Z,6.72
2019-04-04T22:09:33.811Z,7.67
2019-04-04T22:12:02.923Z,7.08
2019-04-04T22:14:31.785Z,6.12
2019-04-04T22:17:00.757Z,6.30
2019-04-04T22:19:39.889Z,5.97
2019-04-04T22:22:08.794Z,5.55
2019-04-04T22:24:37.708Z,6.53
2019-04-04T22:27:07.670Z,5.83
2019-04-04T22:29:36.768Z,5.65
2019-04-04T22:32:09.938Z,6.10
2019-04-04T22:34:39.829Z,5.70
2019-04-04T22:37:08.771Z,6.42
2019-04-04T22:39:40.932Z,5.60
2019-04-04T22:42:09.843Z,6.00
2019-04-04T22:44:38.834Z,5.80
2019-04-04T22:47:07.805Z,6.22
2019-04-04T22:49:38.725Z,5.20
2019-04-04T22:52:08.607Z,5.45
2019-04-04T22:54:37.583Z,7.12
2019-04-04T22:57:06.612Z,6.17
2019-04-04T22:59:35.575Z,6.33
2019-04-04T23:02:05.582Z,6.83
2019-04-04T23:04:34.547Z,6.60
2019-04-04T23:07:03.547Z,7.62
2019-04-04T23:09:32.442Z,6.97
2019-04-04T23:12:02.257Z,7.40
2019-04-04T23:14:32.406Z,6.85
2019-04-04T23:17:01.290Z,7.00
2019-04-04T23:19:30.255Z,7.45
2019-04-04T23:21:59.228Z,6.50
2019-04-04T23:24:29.195Z,8.25
2019-04-04T23:26:58.106Z,6.40
2019-04-04T23:29:27.053Z,8.15
2019-04-04T23:31:56.067Z,7.80
2019-04-04T23:34:26.070Z,7.70
2019-04-04T23:36:56.190Z,6.05
2019-04-04T23:39:27.093Z,6.87
2019-04-04T23:41:57.009Z,7.17
2019-04-04T23:44:25.923Z,6.85
2019-04-04T23:46:55.866Z,7.92
2019-04-04T23:49:25.752Z,6.60
2019-04-04T23:51:56.800Z,7.00
2019-04-04T23:54:25.822Z,6.92
2019-04-04T23:56:56.735Z,7.45
2019-04-04T23:59:26.740Z,7.47
